Time;durP1;ratioP1;P1;durP2;ratioP2;P2;SDS_P1;SDS_P2;PMS_P1;PMS_P2;Temp;Humidity;BMP_temperature;BMP_pressure;BME280_temperature;BME280_humidity;BME280_pressure;Samples;Min_cycle;Max_cycle;Signal;HPM_P1;HPM_P2
2023/09/28 00:00:36;;;;;;;8.35;3.72;;;22.70;53.10;;;;;;352648;28;1102;-56
2023/09/28 00:00:47;;;;;;;8.90;3.95;;;22.60;53.10;;;;;;352637;27;1010;-56
2023/09/28 00:00:58;;;;;;;9.30;3.90;;;22.70;53.20;;;;;;352678;28;974;-56
2023/09/28 00:01:16;;;;;;;9.75;3.90;;;22.70;53.20;;;;;;352592;28;1523;-56
2023/09/28 00:01:27;;;;;;;7.50;3.70;;;22.70;53.20;;;;;;352680;28;1046;-56
2023/09/28 00:01:40;;;;;;;6.45;3.65;;;22.70;53.20;;;;;;352628;28;917;-55
2023/09/28 00:01:51;;;;;;;8.55;3.50;;;22.70;53.20;;;;;;352729;28;888;-56
2023/09/28 00:02:03;;;;;;;8.40;3.38;;;22.60;53.20;;;;;;352707;28;978;-57
2023/09/28 00:02:13;;;;;;;9.00;3.70;;;22.60;53.20;;;;;;352655;28;1094;-55
2023/09/28 00:02:26;;;;;;;7.50;4.07;;;22.60;53.20;;;;;;352637;28;933;-56
2023/09/28 00:02:36;;;;;;;8.80;4.15;;;22.60;53.20;;;;;;352744;28;880;-56
2023/09/28 00:02:47;;;;;;;10.23;4.15;;;22.60;53.30;;;;;;352757;28;828;-55
2023/09/28 00:02:58;;;;;;;9.13;4.13;;;22.70;53.20;;;;;;352689;28;1055;-56
2023/09/28 00:03:10;;;;;;;9.02;4.20;;;22.60;53.20;;;;;;352593;27;1855;-56
2023/09/28 00:03:20;;;;;;;7.80;4.15;;;22.60;53.30;;;;;;352679;28;994;-55
2023/09/28 00:03:31;;;;;;;8.60;4.13;;;22.60;53.30;;;;;;352694;28;1947;-55
2023/09/28 00:03:42;;;;;;;8.25;4.07;;;22.60;53.20;;;;;;352726;28;1022;-55
2023/09/28 00:03:53;;;;;;;7.75;3.90;;;22.60;53.30;;;;;;352678;27;1400;-57
2023/09/28 00:04:06;;;;;;;7.00;3.90;;;22.60;53.30;;;;;;352603;28;1022;-55
2023/09/28 00:04:17;;;;;;;6.97;3.55;;;22.60;53.30;;;;;;352630;28;1010;-56
2023/09/28 00:04:28;;;;;;;6.63;3.20;;;22.60;53.40;;;;;;352698;27;999;-54
2023/09/28 00:04:39;;;;;;;6.55;3.50;;;22.60;53.40;;;;;;352749;28;994;-56
2023/09/28 00:04:49;;;;;;;7.82;3.80;;;22.60;53.40;;;;;;352627;28;1054;-54
2023/09/28 00:05:00;;;;;;;8.17;3.77;;;22.60;53.40;;;;;;352690;28;1298;-54
2023/09/28 00:05:13;;;;;;;9.82;3.65;;;22.60;53.40;;;;;;352702;28;896;-55
2023/09/28 00:05:24;;;;;;;11.05;3.88;;;22.60;53.40;;;;;;352748;27;1070;-56
2023/09/28 00:05:34;;;;;;;11.17;4.10;;;22.60;53.40;;;;;;352632;28;1028;-55
2023/09/28 00:05:46;;;;;;;9.97;4.07;;;22.60;53.50;;;;;;352760;28;975;-56
2023/09/28 00:05:56;;;;;;;8.55;4.10;;;22.60;53.50;;;;;;352650;28;1235;-55
2023/09/28 00:06:07;;;;;;;8.77;4.37;;;22.60;53.50;;;;;;352651;28;959;-56
2023/09/28 00:06:18;;;;;;;6.95;4.20;;;22.60;53.50;;;;;;352657;28;2080;-55
2023/09/28 00:06:29;;;;;;;7.05;3.97;;;22.60;53.50;;;;;;352607;28;1515;-55
2023/09/28 00:06:39;;;;;;;7.20;3.60;;;22.60;53.50;;;;;;352545;28;1648;-56
2023/09/28 00:06:50;;;;;;;8.33;3.83;;;22.60;53.50;;;;;;352695;28;1189;-54
2023/09/28 00:07:01;;;;;;;8.77;4.05;;;22.50;53.50;;;;;;352663;28;1233;-55
2023/09/28 00:07:11;;;;;;;8.43;4.13;;;22.50;53.60;;;;;;352619;28;1017;-55
2023/09/28 00:07:22;;;;;;;9.57;4.17;;;22.60;53.50;;;;;;352698;28;1046;-55
2023/09/28 00:07:33;;;;;;;9.38;4.00;;;22.50;53.50;;;;;;352770;28;1030;-55
2023/09/28 00:07:44;;;;;;;7.95;3.83;;;22.50;53.50;;;;;;352565;28;1122;-55
2023/09/28 00:07:57;;;;;;;6.35;3.60;;;22.50;53.60;;;;;;352716;28;951;-54
2023/09/28 00:08:08;;;;;;;9.02;4.10;;;22.50;53.50;;;;;;352699;28;971;-55
2023/09/28 00:08:19;;;;;;;9.65;4.25;;;22.50;53.60;;;;;;352606;28;1078;-56
2023/09/28 00:08:30;;;;;;;10.13;4.23;;;22.50;53.60;;;;;;352756;28;681;-54
2023/09/28 00:08:40;;;;;;;8.43;3.90;;;22.50;53.60;;;;;;352694;28;1182;-55
2023/09/28 00:08:51;;;;;;;8.48;4.03;;;22.50;53.60;;;;;;352550;28;1637;-55
2023/09/28 00:09:03;;;;;;;6.90;3.90;;;22.50;53.60;;;;;;352665;28;986;-56
2023/09/28 00:09:14;;;;;;;8.27;3.90;;;22.50;53.60;;;;;;352610;28;1160;-57
2023/09/28 00:09:25;;;;;;;8.43;3.78;;;22.50;53.60;;;;;;352645;28;1021;-55
2023/09/28 00:09:36;;;;;;;8.25;3.90;;;22.40;53.70;;;;;;352690;28;1077;-56
2023/09/28 00:09:47;;;;;;;9.05;3.90;;;22.50;53.70;;;;;;352680;28;1257;-55
2023/09/28 00:09:57;;;;;;;8.97;3.70;;;22.50;53.70;;;;;;352628;28;1090;-55
2023/09/28 00:10:13;;;;;;;8.30;3.63;;;22.40;53.60;;;;;;352679;28;935;-55
2023/09/28 00:10:23;;;;;;;7.88;3.70;;;22.40;53.70;;;;;;352724;28;999;-56
2023/09/28 00:10:34;;;;;;;8.00;3.67;;;22.40;53.70;;;;;;352627;28;1080;-55
2023/09/28 00:10:45;;;;;;;8.02;3.50;;;22.40;53.70;;;;;;352703;28;1018;-56
2023/09/28 00:10:56;;;;;;;7.55;3.33;;;22.40;53.70;;;;;;352804;28;795;-55
2023/09/28 00:11:06;;;;;;;7.65;3.50;;;22.40;53.70;;;;;;352615;28;894;-56
2023/09/28 00:11:17;;;;;;;7.37;3.50;;;22.40;53.70;;;;;;352642;28;1157;-55
2023/09/28 00:11:28;;;;;;;9.00;3.72;;;22.40;53.70;;;;;;352678;28;1117;-55
2023/09/28 00:11:39;;;;;;;9.43;3.80;;;22.40;53.70;;;;;;352563;28;1154;-55
2023/09/28 00:11:49;;;;;;;7.70;3.90;;;22.40;53.70;;;;;;352719;28;963;-54
2023/09/28 00:12:01;;;;;;;7.82;3.85;;;22.40;53.70;;;;;;352707;27;1030;-55
2023/09/28 00:12:11;;;;;;;8.73;4.00;;;22.40;53.70;;;;;;352566;28;873;-55
2023/09/28 00:12:22;;;;;;;8.40;3.90;;;22.40;53.70;;;;;;352723;28;943;-56
2023/09/28 00:12:33;;;;;;;6.65;3.88;;;22.40;53.70;;;;;;352636;28;1014;-55
2023/09/28 00:12:49;;;;;;;6.00;3.72;;;22.40;53.70;;;;;;352649;28;1599;-56
2023/09/28 00:13:00;;;;;;;7.85;3.67;;;22.40;53.80;;;;;;352622;28;971;-55
2023/09/28 00:13:10;;;;;;;8.63;3.90;;;22.40;53.70;;;;;;352616;28;951;-56
2023/09/28 00:13:21;;;;;;;8.88;3.90;;;22.40;53.80;;;;;;352677;28;990;-55
2023/09/28 00:13:32;;;;;;;8.80;3.90;;;22.40;53.80;;;;;;352702;28;1074;-55
2023/09/28 00:13:42;;;;;;;8.35;3.70;;;22.40;53.80;;;;;;352562;28;1107;-55
2023/09/28 00:13:53;;;;;;;6.93;3.55;;;22.40;53.80;;;;;;352746;28;990;-54
2023/09/28 00:14:04;;;;;;;5.93;3.47;;;22.40;53.80;;;;;;352725;28;967;-55
2023/09/28 00:14:15;;;;;;;5.75;3.55;;;22.40;53.80;;;;;;352651;28;1127;-55
2023/09/28 00:14:26;;;;;;;7.63;3.78;;;22.40;53.80;;;;;;352658;28;1450;-55
2023/09/28 00:14:37;;;;;;;8.70;4.00;;;22.40;53.80;;;;;;352664;28;975;-55
2023/09/28 00:14:47;;;;;;;9.15;4.13;;;22.30;53.80;;;;;;352561;28;1018;-56
2023/09/28 00:14:59;;;;;;;9.23;4.03;;;22.40;53.80;;;;;;352699;28;1090;-56
2023/09/28 00:15:10;;;;;;;9.27;4.03;;;22.40;53.80;;;;;;352645;28;1105;-56
2023/09/28 00:15:24;;;;;;;9.68;4.10;;;22.30;53.90;;;;;;352561;28;1606;-54
2023/09/28 00:15:35;;;;;;;8.48;3.90;;;22.40;53.90;;;;;;352682;28;1077;-55
2023/09/28 00:15:46;;;;;;;8.27;3.90;;;22.40;53.90;;;;;;352688;28;1101;-55
2023/09/28 00:15:57;;;;;;;9.60;4.18;;;22.30;53.90;;;;;;352700;28;844;-55
2023/09/28 00:16:08;;;;;;;9.93;4.35;;;22.30;53.90;;;;;;352534;27;1905;-56
2023/09/28 00:16:19;;;;;;;9.90;4.25;;;22.30;53.90;;;;;;352695;28;1010;-57
2023/09/28 00:16:31;;;;;;;8.77;4.30;;;22.30;54.00;;;;;;352744;28;1073;-55
2023/09/28 00:16:42;;;;;;;9.32;4.38;;;22.30;54.00;;;;;;352641;28;2027;-55
2023/09/28 00:16:52;;;;;;;8.90;4.20;;;22.30;54.00;;;;;;352575;28;1095;-55
2023/09/28 00:17:03;;;;;;;8.23;3.97;;;22.30;54.00;;;;;;352737;28;875;-56
2023/09/28 00:17:14;;;;;;;7.20;3.83;;;22.30;54.00;;;;;;352670;28;853;-56
2023/09/28 00:17:25;;;;;;;7.35;3.70;;;22.30;54.00;;;;;;352724;28;983;-54
2023/09/28 00:17:40;;;;;;;8.50;3.58;;;22.30;54.00;;;;;;352603;28;947;-57
2023/09/28 00:17:52;;;;;;;7.50;3.60;;;22.30;54.00;;;;;;352660;28;1038;-54
2023/09/28 00:18:03;;;;;;;6.35;3.70;;;22.30;54.00;;;;;;352682;28;1050;-57
2023/09/28 00:18:14;;;;;;;6.95;3.85;;;22.30;53.90;;;;;;352650;28;994;-55
2023/09/28 00:18:25;;;;;;;9.10;3.90;;;22.30;53.90;;;;;;352567;28;1059;-55
2023/09/28 00:18:36;;;;;;;8.13;3.63;;;22.30;53.90;;;;;;352684;28;1109;-56
2023/09/28 00:18:47;;;;;;;7.22;3.67;;;22.30;53.90;;;;;;352633;28;1074;-55
2023/09/28 00:18:58;;;;;;;5.70;3.63;;;22.30;53.90;;;;;;352674;28;1073;-56
2023/09/28 00:19:10;;;;;;;6.63;3.80;;;22.30;54.00;;;;;;352614;28;1031;-55
2023/09/28 00:19:21;;;;;;;7.97;3.70;;;22.30;54.00;;;;;;352616;28;983;-57
2023/09/28 00:19:31;;;;;;;7.40;3.70;;;22.30;54.00;;;;;;352696;28;1077;-55
2023/09/28 00:19:42;;;;;;;7.03;3.90;;;22.30;54.10;;;;;;352635;28;1204;-55
2023/09/28 00:19:53;;;;;;;7.95;4.10;;;22.30;54.10;;;;;;352546;28;2495;-54
2023/09/28 00:20:09;;;;;;;8.02;3.90;;;22.30;54.10;;;;;;352653;28;1982;-55
2023/09/28 00:20:23;;;;;;;7.63;3.60;;;22.20;54.10;;;;;;352706;28;998;-55
2023/09/28 00:20:34;;;;;;;7.35;3.97;;;22.20;54.10;;;;;;352563;28;1110;-55
2023/09/28 00:20:44;;;;;;;8.02;4.00;;;22.30;54.20;;;;;;352658;27;1109;-56
2023/09/28 00:20:56;;;;;;;7.13;4.03;;;22.20;54.20;;;;;;352678;28;999;-55
2023/09/28 00:21:06;;;;;;;7.50;4.10;;;22.20;54.20;;;;;;352706;28;856;-56
2023/09/28 00:21:17;;;;;;;7.40;4.00;;;22.30;54.20;;;;;;352611;28;931;-55
2023/09/28 00:21:28;;;;;;;9.10;4.00;;;22.20;54.20;;;;;;352698;28;980;-56
2023/09/28 00:21:39;;;;;;;8.13;3.70;;;22.20;54.20;;;;;;352693;28;1450;-55
2023/09/28 00:21:50;;;;;;;8.10;3.70;;;22.20;54.20;;;;;;352668;28;1150;-56
2023/09/28 00:22:01;;;;;;;7.53;3.88;;;22.20;54.20;;;;;;352586;28;1012;-55
2023/09/28 00:22:12;;;;;;;7.93;3.97;;;22.20;54.20;;;;;;352652;28;1038;-55
2023/09/28 00:22:22;;;;;;;7.50;4.10;;;22.20;54.20;;;;;;352681;28;1038;-56
2023/09/28 00:22:33;;;;;;;7.30;4.18;;;22.20;54.20;;;;;;352579;28;1038;-56
2023/09/28 00:22:50;;;;;;;7.05;4.15;;;22.20;54.20;;;;;;352672;28;904;-55
2023/09/28 00:23:00;;;;;;;6.63;3.80;;;22.20;54.20;;;;;;352677;28;1089;-56
2023/09/28 00:23:11;;;;;;;7.55;3.85;;;22.20;54.30;;;;;;352599;28;975;-55
2023/09/28 00:23:22;;;;;;;8.00;3.80;;;22.20;54.20;;;;;;352674;28;1030;-57
2023/09/28 00:23:33;;;;;;;8.38;3.80;;;22.20;54.30;;;;;;352627;28;1107;-55
2023/09/28 00:23:44;;;;;;;8.63;3.90;;;22.20;54.30;;;;;;352585;28;1113;-57
2023/09/28 00:23:55;;;;;;;8.18;3.90;;;22.20;54.30;;;;;;352683;28;889;-55
2023/09/28 00:24:09;;;;;;;8.70;3.95;;;22.20;54.30;;;;;;352665;28;1038;-56
2023/09/28 00:24:20;;;;;;;9.35;3.88;;;22.20;54.30;;;;;;352532;28;1126;-55
2023/09/28 00:24:30;;;;;;;9.57;3.90;;;22.20;54.30;;;;;;352589;28;1831;-55
2023/09/28 00:24:42;;;;;;;10.20;3.70;;;22.20;54.30;;;;;;352595;28;1471;-56
2023/09/28 00:24:53;;;;;;;7.75;3.75;;;22.20;54.30;;;;;;352648;28;1127;-56
2023/09/28 00:25:10;;;;;;;7.15;3.65;;;22.20;54.30;;;;;;352601;28;1171;-56
2023/09/28 00:25:23;;;;;;;7.68;3.80;;;22.20;54.30;;;;;;352658;28;1097;-56
2023/09/28 00:25:33;;;;;;;7.18;3.95;;;22.20;54.30;;;;;;352675;28;1050;-55
2023/09/28 00:25:44;;;;;;;8.20;3.97;;;22.20;54.30;;;;;;352682;28;887;-56
2023/09/28 00:25:55;;;;;;;9.30;4.00;;;22.20;54.40;;;;;;352595;28;897;-55
2023/09/28 00:26:07;;;;;;;9.93;4.03;;;22.20;54.40;;;;;;352624;28;1106;-55
2023/09/28 00:26:19;;;;;;;10.93;4.40;;;22.20;54.30;;;;;;352617;28;1881;-55
2023/09/28 00:26:29;;;;;;;10.55;4.45;;;22.20;54.30;;;;;;352668;28;833;-56
2023/09/28 00:26:40;;;;;;;8.55;4.03;;;22.20;54.30;;;;;;352634;28;1057;-57
2023/09/28 00:26:51;;;;;;;7.60;3.80;;;22.20;54.40;;;;;;352626;28;1029;-55
2023/09/28 00:27:02;;;;;;;7.80;3.83;;;22.20;54.40;;;;;;352696;28;1452;-55
2023/09/28 00:27:13;;;;;;;8.35;4.20;;;22.20;54.30;;;;;;352653;28;987;-55
2023/09/28 00:27:24;;;;;;;8.45;4.28;;;22.20;54.40;;;;;;352668;28;995;-55
2023/09/28 00:27:35;;;;;;;9.80;4.43;;;22.20;54.40;;;;;;352686;28;887;-54
2023/09/28 00:27:50;;;;;;;9.95;4.28;;;22.20;54.40;;;;;;352547;28;1221;-56
2023/09/28 00:28:00;;;;;;;8.27;3.88;;;22.20;54.40;;;;;;352662;28;1101;-55
2023/09/28 00:28:11;;;;;;;7.72;3.80;;;22.20;54.40;;;;;;352670;28;1023;-56
2023/09/28 00:28:22;;;;;;;8.27;4.17;;;22.20;54.40;;;;;;352675;28;1158;-56
2023/09/28 00:28:33;;;;;;;9.02;4.47;;;22.20;54.40;;;;;;352646;28;928;-56
2023/09/28 00:28:44;;;;;;;9.20;4.28;;;22.20;54.40;;;;;;352580;28;1027;-56
2023/09/28 00:28:55;;;;;;;8.30;4.03;;;22.20;54.40;;;;;;352693;28;1019;-55
2023/09/28 00:29:06;;;;;;;8.17;4.10;;;22.20;54.40;;;;;;352637;28;1185;-55
2023/09/28 00:29:18;;;;;;;8.15;4.20;;;22.20;54.40;;;;;;352590;28;1050;-56
2023/09/28 00:29:28;;;;;;;8.30;4.07;;;22.20;54.40;;;;;;352658;28;978;-56
2023/09/28 00:29:39;;;;;;;8.77;4.05;;;22.20;54.40;;;;;;352607;28;1008;-57
2023/09/28 00:29:50;;;;;;;8.15;4.15;;;22.20;54.40;;;;;;352675;28;899;-56
2023/09/28 00:30:03;;;;;;;8.57;4.25;;;22.20;54.50;;;;;;352595;28;1832;-54
2023/09/28 00:30:21;;;;;;;7.10;3.85;;;22.20;54.50;;;;;;352670;28;895;-55
2023/09/28 00:30:32;;;;;;;7.03;3.58;;;22.20;54.50;;;;;;352624;28;926;-54
2023/09/28 00:30:44;;;;;;;7.47;3.78;;;22.20;54.50;;;;;;352685;28;1014;-55
2023/09/28 00:30:55;;;;;;;7.72;3.92;;;22.20;54.50;;;;;;352677;27;866;-53
2023/09/28 00:31:06;;;;;;;7.25;4.07;;;22.20;54.60;;;;;;352562;28;1067;-55
2023/09/28 00:31:17;;;;;;;6.80;4.05;;;22.20;54.60;;;;;;352635;28;1019;-55
2023/09/28 00:31:28;;;;;;;5.97;3.85;;;22.20;54.60;;;;;;352650;28;1350;-56
2023/09/28 00:31:39;;;;;;;7.28;3.92;;;22.20;54.60;;;;;;352653;28;996;-55
2023/09/28 00:31:49;;;;;;;7.63;4.10;;;22.20;54.60;;;;;;352687;28;1409;-55
2023/09/28 00:32:00;;;;;;;7.93;4.27;;;22.20;54.50;;;;;;352677;28;849;-56
2023/09/28 00:32:12;;;;;;;7.72;4.28;;;22.20;54.60;;;;;;352583;28;955;-56
2023/09/28 00:32:23;;;;;;;8.20;4.38;;;22.20;54.50;;;;;;352665;28;979;-55
2023/09/28 00:32:33;;;;;;;9.02;4.22;;;22.20;54.50;;;;;;352608;28;1460;-55
2023/09/28 00:32:45;;;;;;;9.33;4.27;;;22.20;54.50;;;;;;352626;28;981;-57
2023/09/28 00:32:57;;;;;;;8.57;4.35;;;22.20;54.50;;;;;;352565;28;1606;-57
2023/09/28 00:33:07;;;;;;;8.27;4.70;;;22.20;54.50;;;;;;352647;28;959;-55
2023/09/28 00:33:18;;;;;;;8.33;4.70;;;22.20;54.60;;;;;;352585;28;991;-55
2023/09/28 00:33:29;;;;;;;9.93;4.40;;;22.20;54.60;;;;;;352699;28;1058;-56
2023/09/28 00:33:39;;;;;;;9.93;4.10;;;22.20;54.60;;;;;;352702;28;907;-55
2023/09/28 00:33:50;;;;;;;9.13;4.30;;;22.20;54.60;;;;;;352621;28;1046;-55
2023/09/28 00:34:01;;;;;;;8.17;4.20;;;22.20;54.50;;;;;;352681;28;825;-56
2023/09/28 00:34:11;;;;;;;7.78;4.40;;;22.20;54.50;;;;;;352604;28;1158;-57
2023/09/28 00:34:22;;;;;;;7.57;4.35;;;22.20;54.60;;;;;;352578;28;1081;-55
2023/09/28 00:34:33;;;;;;;8.10;4.50;;;22.20;54.60;;;;;;352685;28;1027;-54
2023/09/28 00:34:44;;;;;;;7.63;4.13;;;22.10;54.60;;;;;;352636;28;1107;-55
2023/09/28 00:34:55;;;;;;;7.22;4.13;;;22.20;54.60;;;;;;352561;28;1102;-55
2023/09/28 00:35:06;;;;;;;7.80;4.20;;;22.20;54.60;;;;;;352673;27;825;-55
2023/09/28 00:35:17;;;;;;;8.34;4.28;;;22.20;54.60;;;;;;352410;28;1114;-55
2023/09/28 00:35:28;;;;;;;8.55;3.97;;;22.20;54.60;;;;;;352602;28;1360;-54
2023/09/28 00:35:39;;;;;;;7.00;3.78;;;22.20;54.60;;;;;;352690;27;1007;-56
2023/09/28 00:35:49;;;;;;;6.80;3.80;;;22.20;54.60;;;;;;352594;28;1078;-55
2023/09/28 00:36:00;;;;;;;7.10;3.90;;;22.20;54.60;;;;;;352663;28;1073;-56
2023/09/28 00:36:11;;;;;;;7.47;3.88;;;22.20;54.60;;;;;;352545;28;1912;-56
2023/09/28 00:36:22;;;;;;;7.67;3.70;;;22.10;54.60;;;;;;352606;28;1532;-56
2023/09/28 00:36:33;;;;;;;6.43;3.85;;;22.20;54.60;;;;;;352585;28;1131;-55
2023/09/28 00:36:43;;;;;;;6.90;3.95;;;22.20;54.50;;;;;;352562;27;1146;-56
2023/09/28 00:36:54;;;;;;;7.60;4.10;;;22.20;54.60;;;;;;352629;28;1162;-55
2023/09/28 00:37:05;;;;;;;8.23;4.10;;;22.10;54.60;;;;;;352677;28;864;-56
2023/09/28 00:37:16;;;;;;;8.60;4.18;;;22.10;54.60;;;;;;352675;28;883;-57
2023/09/28 00:37:26;;;;;;;8.52;4.35;;;22.20;54.60;;;;;;352590;28;1555;-55
2023/09/28 00:37:37;;;;;;;10.60;4.40;;;22.20;54.60;;;;;;352589;28;1705;-56
2023/09/28 00:37:49;;;;;;;10.45;4.22;;;22.20;54.60;;;;;;352679;28;1033;-56
2023/09/28 00:38:00;;;;;;;8.93;3.78;;;22.20;54.60;;;;;;352616;28;991;-57
2023/09/28 00:38:10;;;;;;;6.65;3.60;;;22.20;54.60;;;;;;352648;28;1070;-55
2023/09/28 00:38:21;;;;;;;8.07;3.80;;;22.20;54.60;;;;;;352631;28;1086;-56
2023/09/28 00:38:32;;;;;;;9.30;4.00;;;22.10;54.60;;;;;;352532;28;1090;-55
2023/09/28 00:38:43;;;;;;;9.35;4.03;;;22.20;54.60;;;;;;352660;28;947;-56
2023/09/28 00:38:54;;;;;;;8.32;3.80;;;22.20;54.60;;;;;;352595;28;1324;-55
2023/09/28 00:39:05;;;;;;;8.57;3.90;;;22.10;54.60;;;;;;352694;28;836;-58
2023/09/28 00:39:16;;;;;;;8.80;4.50;;;22.10;54.60;;;;;;352643;28;1065;-56
2023/09/28 00:39:27;;;;;;;7.97;4.77;;;22.10;54.60;;;;;;352550;28;978;-55
2023/09/28 00:39:37;;;;;;;7.35;4.60;;;22.20;54.60;;;;;;352633;28;1779;-56
2023/09/28 00:39:49;;;;;;;7.15;4.00;;;22.20;54.60;;;;;;352660;28;1066;-56
2023/09/28 00:40:01;;;;;;;7.63;3.63;;;22.10;54.60;;;;;;352615;28;1006;-55
2023/09/28 00:40:21;;;;;;;8.07;3.80;;;22.10;54.60;;;;;;352676;28;857;-59
2023/09/28 00:40:31;;;;;;;8.77;4.28;;;22.20;54.60;;;;;;352575;28;2076;-55
2023/09/28 00:40:42;;;;;;;8.48;4.30;;;22.20;54.60;;;;;;352587;28;1138;-56
2023/09/28 00:40:53;;;;;;;8.73;4.13;;;22.10;54.60;;;;;;352584;28;999;-55
2023/09/28 00:41:04;;;;;;;9.43;4.30;;;22.10;54.60;;;;;;352613;28;1034;-57
2023/09/28 00:41:15;;;;;;;9.90;4.32;;;22.10;54.60;;;;;;352673;28;1343;-56
2023/09/28 00:41:25;;;;;;;9.73;4.50;;;22.10;54.70;;;;;;352606;28;1008;-56
2023/09/28 00:41:36;;;;;;;8.60;4.38;;;22.20;54.70;;;;;;352651;28;959;-56
2023/09/28 00:41:47;;;;;;;7.35;4.22;;;22.10;54.70;;;;;;352700;28;1030;-56
2023/09/28 00:41:57;;;;;;;6.83;3.87;;;22.10;54.70;;;;;;352551;28;1422;-56
2023/09/28 00:42:08;;;;;;;8.50;3.85;;;22.10;54.80;;;;;;352589;28;1451;-55
2023/09/28 00:42:19;;;;;;;8.70;4.10;;;22.20;54.70;;;;;;352606;27;1215;-56
2023/09/28 00:42:29;;;;;;;9.27;4.20;;;22.10;54.70;;;;;;352555;28;1045;-55
2023/09/28 00:42:40;;;;;;;9.33;4.30;;;22.10;54.80;;;;;;352659;28;943;-56
2023/09/28 00:42:51;;;;;;;8.98;4.22;;;22.10;54.80;;;;;;352667;28;983;-54
2023/09/28 00:43:04;;;;;;;8.15;4.20;;;22.10;54.80;;;;;;352533;28;1202;-54
2023/09/28 00:43:14;;;;;;;6.63;4.10;;;22.10;54.80;;;;;;352668;28;868;-56
2023/09/28 00:43:29;;;;;;;6.88;3.95;;;22.10;54.80;;;;;;352677;28;1002;-55
2023/09/28 00:43:40;;;;;;;7.47;4.00;;;22.10;54.70;;;;;;352545;28;1973;-55
2023/09/28 00:43:51;;;;;;;7.97;3.92;;;22.10;54.70;;;;;;352660;28;929;-55
2023/09/28 00:44:01;;;;;;;7.10;3.92;;;22.10;54.70;;;;;;352632;28;1066;-56
2023/09/28 00:44:12;;;;;;;8.52;3.97;;;22.10;54.60;;;;;;352505;28;1301;-55
2023/09/28 00:44:23;;;;;;;8.60;4.00;;;22.10;54.60;;;;;;352631;28;1086;-56
2023/09/28 00:44:34;;;;;;;8.63;4.25;;;22.10;54.60;;;;;;352640;28;959;-54
2023/09/28 00:44:45;;;;;;;7.63;4.30;;;22.10;54.50;;;;;;352561;28;1054;-57
2023/09/28 00:44:56;;;;;;;8.43;4.28;;;22.10;54.50;;;;;;352627;28;951;-55
2023/09/28 00:45:08;;;;;;;8.60;4.00;;;22.10;54.50;;;;;;352658;28;967;-55
2023/09/28 00:45:21;;;;;;;8.73;3.88;;;22.10;54.40;;;;;;352581;28;1058;-55
2023/09/28 00:45:32;;;;;;;7.20;3.70;;;22.10;54.40;;;;;;352633;27;987;-57
2023/09/28 00:45:43;;;;;;;7.70;3.75;;;22.10;54.40;;;;;;352618;27;982;-56
2023/09/28 00:45:54;;;;;;;6.93;3.83;;;22.10;54.40;;;;;;352566;28;1063;-56
2023/09/28 00:46:05;;;;;;;6.37;3.87;;;22.10;54.40;;;;;;352665;28;1836;-55
2023/09/28 00:46:16;;;;;;;6.93;3.97;;;22.10;54.40;;;;;;352597;28;1107;-57
2023/09/28 00:46:32;;;;;;;6.95;3.95;;;22.10;54.40;;;;;;352565;27;1090;-55
2023/09/28 00:46:43;;;;;;;6.38;3.85;;;22.10;54.40;;;;;;352670;28;947;-56
2023/09/28 00:46:54;;;;;;;6.20;3.78;;;22.10;54.40;;;;;;352684;28;844;-55
2023/09/28 00:47:05;;;;;;;6.53;3.60;;;22.10;54.40;;;;;;352537;28;1022;-55
2023/09/28 00:47:16;;;;;;;6.45;3.60;;;22.10;54.40;;;;;;352620;28;1124;-55
2023/09/28 00:47:27;;;;;;;6.22;3.60;;;22.10;54.40;;;;;;352664;28;857;-55
2023/09/28 00:47:41;;;;;;;7.00;3.70;;;22.10;54.30;;;;;;352725;28;829;-57
2023/09/28 00:47:54;;;;;;;8.10;3.78;;;22.10;54.30;;;;;;352508;28;1134;-57
2023/09/28 00:48:09;;;;;;;8.90;4.00;;;22.10;54.40;;;;;;352607;28;1118;-55
2023/09/28 00:48:20;;;;;;;7.45;4.10;;;22.10;54.30;;;;;;352658;28;1053;-57
2023/09/28 00:48:40;;;;;;;7.63;4.03;;;22.10;54.30;;;;;;352568;28;974;-56
2023/09/28 00:49:05;;;;;;;9.02;3.70;;;22.10;54.30;;;;;;352590;28;1019;-56
2023/09/28 00:49:16;;;;;;;8.38;3.80;;;22.10;54.40;;;;;;352501;28;1782;-55
2023/09/28 00:49:27;;;;;;;7.57;4.03;;;22.10;54.30;;;;;;352614;28;1885;-57
2023/09/28 00:49:38;;;;;;;8.50;3.95;;;22.10;54.30;;;;;;352628;28;1507;-55
2023/09/28 00:49:49;;;;;;;9.55;3.88;;;22.10;54.30;;;;;;352514;28;1098;-56
2023/09/28 00:50:03;;;;;;;9.80;3.70;;;22.10;54.30;;;;;;352639;28;1058;-55
2023/09/28 00:50:15;;;;;;;8.98;3.50;;;22.10;54.40;;;;;;352563;28;1098;-57
2023/09/28 00:50:28;;;;;;;7.32;3.60;;;22.10;54.40;;;;;;352585;28;1197;-55
2023/09/28 00:50:39;;;;;;;6.13;3.53;;;22.10;54.40;;;;;;352549;28;979;-55
2023/09/28 00:50:50;;;;;;;6.07;3.55;;;22.10;54.40;;;;;;352645;28;1042;-55
2023/09/28 00:51:01;;;;;;;7.85;3.67;;;22.10;54.40;;;;;;352655;28;907;-55
2023/09/28 00:51:12;;;;;;;8.15;3.85;;;22.10;54.40;;;;;;352649;28;951;-56
2023/09/28 00:51:26;;;;;;;8.67;3.80;;;22.10;54.40;;;;;;352590;28;1086;-55
2023/09/28 00:51:39;;;;;;;8.23;3.67;;;22.10;54.30;;;;;;352658;28;876;-56
2023/09/28 00:51:51;;;;;;;8.40;3.70;;;22.10;54.30;;;;;;352646;28;906;-55
2023/09/28 00:52:03;;;;;;;6.88;3.80;;;22.10;54.40;;;;;;352683;28;976;-55
2023/09/28 00:52:17;;;;;;;5.65;4.00;;;22.10;54.40;;;;;;352551;28;1937;-54
2023/09/28 00:52:28;;;;;;;6.43;4.03;;;22.10;54.30;;;;;;352597;28;1201;-55
2023/09/28 00:52:40;;;;;;;6.63;3.72;;;22.10;54.40;;;;;;352599;28;983;-56
2023/09/28 00:52:54;;;;;;;7.03;3.83;;;22.10;54.40;;;;;;352594;27;1264;-56
2023/09/28 00:53:10;;;;;;;8.68;4.28;;;22.10;54.40;;;;;;352492;28;1360;-55
2023/09/28 00:53:21;;;;;;;7.68;3.95;;;22.10;54.40;;;;;;352630;28;955;-55
2023/09/28 00:53:33;;;;;;;6.80;3.92;;;22.10;54.40;;;;;;352634;28;1059;-57
2023/09/28 00:53:44;;;;;;;7.13;3.95;;;22.10;54.40;;;;;;352598;28;997;-56
2023/09/28 00:53:56;;;;;;;8.18;4.05;;;22.10;54.40;;;;;;352557;28;1566;-55
2023/09/28 00:54:07;;;;;;;7.45;4.05;;;22.10;54.40;;;;;;352654;28;936;-54
2023/09/28 00:54:20;;;;;;;6.90;3.95;;;22.10;54.40;;;;;;352612;28;991;-55
2023/09/28 00:54:31;;;;;;;8.07;3.90;;;22.10;54.40;;;;;;352468;28;1131;-55
2023/09/28 00:54:43;;;;;;;8.67;4.10;;;22.10;54.40;;;;;;352614;28;1022;-55
2023/09/28 00:54:54;;;;;;;6.88;3.85;;;22.00;54.40;;;;;;352590;28;1277;-55
2023/09/28 00:55:06;;;;;;;6.50;3.90;;;22.10;54.40;;;;;;352650;28;888;-57
2023/09/28 00:55:19;;;;;;;8.23;3.90;;;22.10;54.40;;;;;;352561;28;992;-54
2023/09/28 00:55:30;;;;;;;8.73;3.67;;;22.10;54.50;;;;;;352576;28;1037;-55
2023/09/28 00:55:44;;;;;;;8.95;3.63;;;22.00;54.40;;;;;;352576;28;1189;-56
2023/09/28 00:55:56;;;;;;;8.10;3.80;;;22.10;54.50;;;;;;352646;28;1027;-56
2023/09/28 00:56:07;;;;;;;8.55;4.00;;;22.00;54.50;;;;;;352496;28;1352;-57
2023/09/28 00:56:19;;;;;;;8.45;4.25;;;22.10;54.50;;;;;;352489;28;1976;-55
2023/09/28 00:56:31;;;;;;;8.15;4.20;;;22.00;54.50;;;;;;352643;28;880;-55
2023/09/28 00:56:42;;;;;;;7.00;4.00;;;22.10;54.50;;;;;;352590;28;1205;-55
2023/09/28 00:56:53;;;;;;;6.07;3.85;;;22.00;54.40;;;;;;352582;28;913;-55
2023/09/28 00:57:05;;;;;;;5.88;3.83;;;22.10;54.40;;;;;;352663;28;987;-56
2023/09/28 00:57:17;;;;;;;5.78;3.60;;;22.10;54.40;;;;;;352602;28;1007;-55
2023/09/28 00:57:29;;;;;;;6.20;3.78;;;22.00;54.40;;;;;;352635;28;1019;-55
2023/09/28 00:57:42;;;;;;;7.47;3.88;;;22.00;54.40;;;;;;352563;28;1054;-56
2023/09/28 00:58:00;;;;;;;8.77;3.90;;;22.00;54.40;;;;;;352593;28;1127;-57
2023/09/28 00:58:12;;;;;;;9.25;3.92;;;22.00;54.40;;;;;;352594;28;926;-55
2023/09/28 00:58:23;;;;;;;9.48;3.92;;;22.10;54.40;;;;;;352572;28;1213;-54
2023/09/28 00:58:37;;;;;;;9.15;3.83;;;22.10;54.40;;;;;;352610;28;1085;-55
2023/09/28 00:58:52;;;;;;;6.95;3.80;;;22.10;54.30;;;;;;352683;27;1003;-55
2023/09/28 00:59:03;;;;;;;7.57;3.90;;;22.10;54.30;;;;;;352652;28;1610;-56
2023/09/28 00:59:14;;;;;;;8.07;3.78;;;22.10;54.30;;;;;;352503;28;1816;-55
2023/09/28 00:59:25;;;;;;;8.15;3.50;;;22.00;54.30;;;;;;352646;28;956;-57
2023/09/28 00:59:36;;;;;;;8.10;3.70;;;22.00;54.30;;;;;;352669;28;892;-55
2023/09/28 00:59:47;;;;;;;8.13;3.95;;;22.10;54.30;;;;;;352614;27;1122;-56
2023/09/28 00:59:57;;;;;;;8.77;4.23;;;22.10;54.30;;;;;;352542;27;1018;-55
2023/09/28 01:00:31;;;;;;;6.60;3.70;;;22.00;54.30;;;;;;352622;27;983;-55
2023/09/28 01:00:42;;;;;;;7.65;3.78;;;22.00;54.30;;;;;;352617;28;1062;-55
2023/09/28 01:00:53;;;;;;;7.85;4.00;;;22.00;54.30;;;;;;352577;28;1006;-55
2023/09/28 01:01:06;;;;;;;8.50;4.13;;;22.00;54.30;;;;;;352594;28;772;-54
2023/09/28 01:01:16;;;;;;;7.75;4.00;;;22.10;54.30;;;;;;352588;28;840;-55
2023/09/28 01:01:28;;;;;;;7.30;4.00;;;22.10;54.30;;;;;;352698;28;1037;-55
2023/09/28 01:01:39;;;;;;;7.07;3.95;;;22.00;54.30;;;;;;352567;28;1115;-56
2023/09/28 01:01:50;;;;;;;6.80;4.00;;;22.00;54.40;;;;;;352603;28;1022;-57
2023/09/28 01:02:00;;;;;;;7.72;4.20;;;22.00;54.40;;;;;;352622;28;1015;-55
2023/09/28 01:02:11;;;;;;;8.83;4.23;;;22.00;54.40;;;;;;352551;28;1114;-56
2023/09/28 01:02:22;;;;;;;9.70;4.15;;;22.00;54.40;;;;;;352613;28;1150;-55
2023/09/28 01:02:33;;;;;;;9.10;3.65;;;22.00;54.40;;;;;;352600;28;987;-54